Stoneybreak, Pennsylvania
Current Conditions -  °F | °C
As of 10:53 AM on Thursday 23 Oct 2014 (Local Time) from KHGR Reporting Station
Few Clouds Few Clouds  
Wind Chill: 56°   Ceiling: Unl
Heat Index: 56°   Visibility: 10mi
Dew Point: 42°   Wind: 21mph
Humidity: 60%   Direction: 320°NW
Pressure: 29.94"   Gusts: 31mph
Location:  39.7745°N, 78.2026°W
Report Text: KHGR 231453Z 32018G27KT 10SM FEW035 13/06 A2994 RMK AO2 PK WND 32029/1430 SLP149 T01330056 50004
Loading
Personal Weather Stations






























Interactive Weather Map
Tropical Storm Tracking
New forecast layout! Learn more

10-Day Weather Forecast

Advertisements
Track Severe Weather on mobile